Weather at El Libertador Airbase

Public forecast

Using degrees Celsius for public forecast. Weather courtesy of forecast.io.

Current aviation weather report (METAR) for El Libertador Airbase

Report is more than 6 hours old.

Retrieved 2012/02/04 16:00 UTC (10 years ago):

SVBL 041600Z 09010KT 9999 BKN050 XX/XX Q1013

Closest aviation forecast (TAF) to El Libertador Airbase

Forecast is more than 12 hours old.

Closest forecast is Arturo Michelena International Airport, 22.0 nm (40.8 km) W. Retrieved 2022/05/18 18:09 UTC (4 days ago):

TAF TAF SVVA 181700Z 1818/1918 VRB02KT 9999 BKN016 SCT100 TX30/1819Z TN21/1909Z TEMPO 1810/1900 18002KT BKN016 TEMPO 1902/1906 36002KT SCT016